ADDS METAR Data INFO
IDs: Format: Raw Decoded Include TAF

Data at: 2029 UTC 16 Dec 2017

KHNR 162015Z AUTO 36009KT 10SM CLR 11/M03 A2987 RMK AO2
KHNR 161955Z AUTO 35008KT 10SM CLR 11/M03 A2987 RMK AO2
KHNR 161935Z AUTO 35007KT 10SM CLR 11/M03 A2987 RMK AO2
KHNR 161915Z AUTO VRB03KT 10SM CLR 11/M03 A2987 RMK AO2
KHNR 161855Z AUTO 33008KT 10SM CLR 10/M03 A2987 RMK AO2
KHNR 161835Z AUTO 32006KT 10SM CLR 09/M03 A2987 RMK AO2
KHNR 161815Z AUTO 00000KT 10SM CLR 09/M03 A2987 RMK AO2
KHNR 161755Z AUTO VRB03KT 10SM CLR 09/M03 A2987 RMK AO2
KHNR 161735Z AUTO 00000KT 10SM CLR 07/M03 A2986 RMK AO2
KHNR 161715Z AUTO 00000KT 10SM CLR 06/M03 A2987 RMK AO2
KHNR 161655Z AUTO 00000KT 10SM CLR 05/M03 A2987 RMK AO2
KHNR 161635Z AUTO 00000KT 10SM CLR 04/M03 A2986 RMK AO2
KHNR 161615Z AUTO 17004KT 10SM CLR 03/M03 A2986 RMK AO2
KHNR 161555Z AUTO 00000KT 10SM CLR 02/M03 A2985 RMK AO2
KHNR 161535Z AUTO 00000KT 10SM CLR 01/M04 A2984 RMK AO2
KHNR 161515Z AUTO 00000KT 10SM CLR 00/M04 A2982 RMK AO2
KHNR 161455Z AUTO 00000KT 10SM CLR M02/M04 A2982 RMK AO2
KHNR 161435Z AUTO 20004KT 10SM CLR M03/M05 A2982 RMK AO2
KHNR 161415Z AUTO 00000KT 10SM CLR M04/M06 A2981 RMK AO2
KHNR 161355Z AUTO 20003KT 10SM CLR M05/M07 A2981 RMK AO2
KHNR 161335Z AUTO 00000KT 10SM CLR M04/M06 A2980 RMK AO2
KHNR 161315Z AUTO 00000KT 10SM CLR M05/M07 A2980 RMK AO2
KHNR 161255Z AUTO 00000KT 10SM CLR M05/M07 A2980 RMK AO2
KHNR 161235Z AUTO 00000KT 10SM CLR M03/M05 A2979 RMK AO2
KHNR 161215Z AUTO 20004KT 10SM CLR M03/M05 A2979 RMK AO2
KHNR 161155Z AUTO 20006KT 10SM CLR M03/M05 A2977 RMK AO2
KHNR 161135Z AUTO 20004KT 10SM CLR M03/M05 A2977 RMK AO2
KHNR 161115Z AUTO 00000KT 10SM CLR M03/M05 A2976 RMK AO2
KHNR 161055Z AUTO 00000KT 10SM CLR M03/M05 A2976 RMK AO2
KHNR 161035Z AUTO 19004KT 10SM CLR M03/M05 A2976 RMK AO2
KHNR 161015Z AUTO 20004KT 10SM CLR M02/M05 A2976 RMK AO2
KHNR 160955Z AUTO 19004KT 10SM CLR M03/M05 A2975 RMK AO2
KHNR 160935Z AUTO 19005KT 10SM CLR M03/M05 A2976 RMK AO2
KHNR 160915Z AUTO 20003KT 10SM CLR M02/M05 A2976 RMK AO2
KHNR 160855Z AUTO 20004KT 10SM CLR M01/M05 A2976 RMK AO2
KHNR 160835Z AUTO 19009KT 10SM CLR 00/M05 A2975 RMK AO2
KHNR 160815Z AUTO 19007KT 10SM CLR 00/M05 A2974 RMK AO2
KHNR 160755Z AUTO 20008KT 10SM CLR M00/M05 A2974 RMK AO2
KHNR 160735Z AUTO 19008KT 10SM CLR 00/M05 A2975 RMK AO2
KHNR 160715Z AUTO 18007KT 10SM CLR M00/M05 A2974 RMK AO2
KHNR 160655Z AUTO 16005KT 10SM CLR M00/M05 A2975 RMK AO2
KHNR 160635Z AUTO 18005KT 10SM CLR M00/M05 A2975 RMK AO2
KHNR 160615Z AUTO 18006KT 10SM CLR 00/M04 A2975 RMK AO2
KHNR 160555Z AUTO 17006KT 10SM CLR 00/M04 A2975 RMK AO2
KHNR 160535Z AUTO 19006KT 10SM CLR 00/M04 A2976 RMK AO2
KHNR 160515Z AUTO 20007KT 10SM CLR 00/M04 A2977 RMK AO2
KHNR 160455Z AUTO 19007KT 10SM CLR 01/M04 A2977 RMK AO2
KHNR 160435Z AUTO 18007KT 10SM CLR 01/M04 A2978 RMK AO2
KHNR 160415Z AUTO 18006KT 10SM CLR 01/M04 A2978 RMK AO2
KHNR 160355Z AUTO 18006KT 10SM CLR 01/M04 A2978 RMK AO2
KHNR 160335Z AUTO 18004KT 10SM CLR 01/M04 A2978 RMK AO2
KHNR 160315Z AUTO 20005KT 10SM CLR 00/M04 A2979 RMK AO2
KHNR 160255Z AUTO 19006KT 10SM CLR 01/M04 A2979 RMK AO2
KHNR 160235Z AUTO 19007KT 10SM CLR 01/M04 A2980 RMK AO2
KHNR 160215Z AUTO 20005KT 10SM CLR 01/M05 A2981 RMK AO2
KHNR 160155Z AUTO 19005KT 10SM CLR 00/M05 A2982 RMK AO2
KHNR 160135Z AUTO 21006KT 10SM CLR 01/M05 A2982 RMK AO2
KHNR 160115Z AUTO 19007G12KT 10SM CLR 03/M04 A2981 RMK AO2
KHNR 160055Z AUTO 20009KT 10SM CLR 03/M04 A2982 RMK AO2
KHNR 160035Z AUTO 20009KT 10SM CLR 05/M04 A2983 RMK AO2
KHNR 160015Z AUTO 20010KT 10SM CLR 05/M04 A2983 RMK AO2
KHNR 152355Z AUTO 21010KT 10SM SCT110 06/M04 A2984 RMK AO2
KHNR 152335Z AUTO 21010KT 10SM BKN110 06/M04 A2984 RMK AO2
KHNR 152315Z AUTO 21011KT 10SM SCT120 06/M04 A2984 RMK AO2
KHNR 152255Z AUTO 22008G15KT 10SM BKN120 07/M04 A2985 RMK AO2
KHNR 152235Z AUTO 21010G18KT 10SM SCT120 07/M04 A2984 RMK AO2
KHNR 152215Z AUTO 21010G16KT 10SM SCT120 07/M04 A2985 RMK AO2
KHNR 152155Z AUTO 22015KT 10SM CLR 07/M04 A2985 RMK AO2
KHNR 152135Z AUTO 22015G21KT 10SM CLR 08/M04 A2987 RMK AO2
KHNR 152115Z AUTO 22012G21KT 10SM CLR 08/M03 A2988 RMK AO2
KHNR 152055Z AUTO 23015KT 10SM CLR 07/M04 A2989 RMK AO2
KHNR 152035Z AUTO 23014G21KT 10SM CLR 07/M04 A2989 RMK AO2
KHNR 152015Z AUTO 22016KT 10SM CLR 07/M04 A2990 RMK AO2
KHNR 151955Z AUTO 24015G21KT 10SM CLR 07/M04 A2991 RMK AO2
KHNR 151935Z AUTO 24018G25KT 10SM CLR 07/M04 A2992 RMK AO2
KHNR 151915Z AUTO 24019G24KT 10SM BKN110 07/M04 A2993 RMK AO2
KHNR 151855Z AUTO 23020KT 10SM BKN110 06/M05 A2994 RMK AO2
KHNR 151835Z AUTO 25018G27KT 10SM CLR 06/M05 A2995 RMK AO2
KHNR 151815Z AUTO 24016G22KT 10SM CLR 06/M04 A2997 RMK AO2
KHNR 151755Z AUTO 25018G24KT 10SM CLR 05/M05 A2998 RMK AO2
KHNR 151735Z AUTO 25016G23KT 10SM CLR 05/M04 A2999 RMK AO2
KHNR 151715Z AUTO 24017G23KT 10SM SCT120 05/M04 A3000 RMK AO2
KHNR 151655Z AUTO 25019G26KT 10SM FEW120 04/M03 A3002 RMK AO2
KHNR 151635Z AUTO 24015G20KT 10SM FEW110 03/M03 A3002 RMK AO2
KHNR 151615Z AUTO 24016KT 10SM SCT110 03/M03 A3004 RMK AO2
KHNR 151555Z AUTO 24013G19KT 10SM FEW120 03/M03 A3003 RMK AO2
KHNR 151535Z AUTO 25013KT 10SM FEW055 02/M03 A3004 RMK AO2
KHNR 151515Z AUTO 24012KT 10SM BKN055 01/M03 A3004 RMK AO2
KHNR 151455Z AUTO 24013KT 10SM BKN055 01/M04 A3003 RMK AO2
KHNR 151435Z AUTO 25012KT 10SM OVC055 01/M04 A3004 RMK AO2
KHNR 151415Z AUTO 24011KT 10SM OVC055 00/M04 A3004 RMK AO2
KHNR 151355Z AUTO 25010KT 10SM OVC055 00/M03 A3006 RMK AO2
KHNR 151335Z AUTO 24010KT 10SM OVC055 M00/M03 A3005 RMK AO2
KHNR 151315Z AUTO 22011KT 10SM OVC055 M00/M03 A3005 RMK AO2
KHNR 151255Z AUTO 22011KT 10SM OVC055 M00/M03 A3006 RMK AO2
KHNR 151235Z AUTO 23010KT 10SM OVC055 M00/M03 A3006 RMK AO2
KHNR 151215Z AUTO 23010KT 10SM OVC050 M00/M03 A3006 RMK AO2
KHNR 151155Z AUTO 23011KT 10SM OVC050 M01/M03 A3006 RMK AO2
KHNR 151135Z AUTO 24011KT 10SM OVC050 M00/M03 A3006 RMK AO2
KHNR 151115Z AUTO 24012KT 10SM OVC050 M01/M03 A3007 RMK AO2
KHNR 151055Z AUTO 23011KT 10SM OVC050 M01/M04 A3007 RMK AO2
KHNR 151035Z AUTO 24009KT 10SM OVC048 M01/M04 A3008 RMK AO2
KHNR 151015Z AUTO 25008KT 10SM OVC047 M01/M04 A3009 RMK AO2
KHNR 150955Z AUTO 24007KT 10SM OVC048 M01/M03 A3010 RMK AO2
KHNR 150935Z AUTO 26008KT 10SM OVC049 M01/M03 A3011 RMK AO2
KHNR 150915Z AUTO 25006KT 10SM OVC046 M01/M03 A3011 RMK AO2
KHNR 150855Z AUTO 27007KT 10SM OVC043 M01/M03 A3012 RMK AO2
KHNR 150835Z AUTO 26007KT 10SM OVC043 M01/M03 A3012 RMK AO2